Affton, Missouri
Current Conditions -  °F | °C
As of 9:53 PM on Sunday 23 Nov 2014 (Local Time) from KCPS Reporting Station
Overcast Overcast  
Wind Chill: 13°   Ceiling: 2000
Heat Index: 13°   Visibility: 10mi
Dew Point: 12°   Wind: 5mph
Humidity: 93%   Direction: 220°SW
Pressure: 29.25"   Gusts: NA
Location:  38.55°N, 90.33°W
Report Text: KCPS 240353Z AUTO 22004KT 10SM FEW007 BKN020 OVC026 13/12 A2925 RMK AO2 SLP904 T01330122 TSNO
Loading
Personal Weather Stations






























Interactive Weather Map New forecast layout! Learn more

10-Day Weather Forecast

Advertisements
Track Severe Weather on mobile